createdAt,value
2023-05-02T00:00:09.783Z,101082.59
2023-05-02T00:02:37.737Z,101078.25
2023-05-02T00:05:06.661Z,101089.16
2023-05-02T00:07:35.428Z,101083.03
2023-05-02T00:10:03.473Z,101088.13
2023-05-02T00:12:32.631Z,101086.72
2023-05-02T00:15:01.372Z,101086.34
2023-05-02T00:17:29.228Z,101099.13
2023-05-02T00:19:57.324Z,101098.09
2023-05-02T00:22:25.770Z,101094.84
2023-05-02T00:24:57.573Z,101092.38
2023-05-02T00:27:25.973Z,101095.72
2023-05-02T00:29:55.890Z,101091.03
2023-05-02T00:32:23.734Z,101091.88
2023-05-02T00:34:52.430Z,101093.94
2023-05-02T00:37:20.529Z,101090.75
2023-05-02T00:39:48.308Z,101095.50
2023-05-02T00:42:16.719Z,101094.91
2023-05-02T00:44:44.497Z,101101.94
2023-05-02T00:47:13.797Z,101104.00
2023-05-02T00:49:41.780Z,101107.34
2023-05-02T00:52:09.653Z,101108.38
2023-05-02T00:54:38.917Z,101106.97
2023-05-02T00:57:07.278Z,101107.41
2023-05-02T00:59:36.286Z,101110.31
2023-05-02T01:02:24.646Z,101118.50
2023-05-02T01:05:01.726Z,101120.63
2023-05-02T01:10:47.511Z,101113.63
2023-05-02T01:13:22.515Z,101121.19
2023-05-02T01:15:52.235Z,101114.44
2023-05-02T01:18:25.450Z,101115.91
2023-05-02T01:21:00.144Z,101116.72
2023-05-02T01:23:37.126Z,101118.41
2023-05-02T01:26:16.908Z,101120.84
2023-05-02T01:28:58.921Z,101133.59
2023-05-02T01:31:28.324Z,101133.28
2023-05-02T01:33:57.741Z,101131.25
2023-05-02T01:36:28.522Z,101130.44
2023-05-02T01:38:57.885Z,101129.63
2023-05-02T01:41:29.011Z,101132.13
2023-05-02T01:43:59.872Z,101136.47
2023-05-02T01:46:29.562Z,101138.09
2023-05-02T01:48:59.051Z,101134.81
2023-05-02T01:51:31.785Z,101136.66
2023-05-02T01:54:02.445Z,101143.03
2023-05-02T01:56:33.503Z,101132.16
2023-05-02T01:59:06.425Z,101139.13
2023-05-02T02:01:36.837Z,101137.47
2023-05-02T02:04:07.154Z,101140.31
2023-05-02T02:06:35.100Z,101138.47
2023-05-02T02:09:04.115Z,101143.59
2023-05-02T02:11:36.682Z,101144.19
2023-05-02T02:14:14.225Z,101141.91
2023-05-02T02:16:43.462Z,101148.47
2023-05-02T02:19:14.993Z,101145.63
2023-05-02T02:21:44.426Z,101152.34
2023-05-02T02:24:13.724Z,101155.81
2023-05-02T02:26:42.584Z,101152.13
2023-05-02T02:29:11.771Z,101153.97
2023-05-02T02:31:40.138Z,101158.28
2023-05-02T02:34:08.893Z,101159.91
2023-05-02T02:36:45.896Z,101157.84
2023-05-02T02:39:27.198Z,101165.06
2023-05-02T02:42:04.698Z,101171.63
2023-05-02T02:44:45.458Z,101162.41
2023-05-02T02:47:21.583Z,101162.00
2023-05-02T02:49:53.032Z,101164.28
2023-05-02T02:52:29.413Z,101158.78
2023-05-02T02:55:02.094Z,101170.25
2023-05-02T02:57:38.705Z,101168.84
2023-05-02T03:00:13.343Z,101176.84
2023-05-02T03:02:44.062Z,101177.25
2023-05-02T03:05:12.482Z,101181.38
2023-05-02T03:07:40.801Z,101188.78
2023-05-02T03:10:09.771Z,101204.53
2023-05-02T03:12:37.610Z,101205.81
2023-05-02T03:15:26.840Z,101194.09
2023-05-02T03:17:54.659Z,101199.84
2023-05-02T03:20:22.444Z,101199.47
2023-05-02T03:22:50.889Z,101194.56
2023-05-02T03:25:18.678Z,101194.38
2023-05-02T03:27:46.621Z,101196.22
2023-05-02T03:30:16.475Z,101199.31
2023-05-02T03:32:44.238Z,101201.97
2023-05-02T03:35:12.062Z,101203.00
2023-05-02T03:37:40.350Z,101202.00
2023-05-02T03:40:09.396Z,101206.31
2023-05-02T03:42:39.990Z,101217.78
2023-05-02T03:45:09.352Z,101209.78
2023-05-02T03:47:38.643Z,101208.59
2023-05-02T03:50:07.503Z,101214.91
2023-05-02T03:52:35.899Z,101218.41
2023-05-02T03:55:04.071Z,101220.28
2023-05-02T03:57:31.928Z,101226.44
2023-05-02T04:00:01.234Z,101228.69
2023-05-02T04:02:29.259Z,101229.53
2023-05-02T04:04:58.467Z,101231.59
2023-05-02T04:07:26.975Z,101227.25
2023-05-02T04:09:54.765Z,101232.81
2023-05-02T04:12:22.640Z,101226.28
2023-05-02T04:14:51.017Z,101235.06
2023-05-02T04:17:18.949Z,101241.44
2023-05-02T04:19:46.750Z,101242.06
2023-05-02T04:22:16.465Z,101246.94
2023-05-02T04:24:44.225Z,101255.78
2023-05-02T04:27:14.430Z,101253.91
2023-05-02T04:29:43.589Z,101249.59
2023-05-02T04:32:11.590Z,101261.72
2023-05-02T04:34:39.367Z,101248.41
2023-05-02T04:37:07.785Z,101251.25
2023-05-02T04:39:36.958Z,101256.97
2023-05-02T04:42:04.915Z,101258.81
2023-05-02T04:44:33.212Z,101264.53
2023-05-02T04:47:00.998Z,101266.00
2023-05-02T04:49:29.099Z,101269.25
2023-05-02T04:51:57.444Z,101272.94
2023-05-02T04:54:25.206Z,101284.81
2023-05-02T04:56:54.416Z,101293.19
2023-05-02T04:59:22.739Z,101293.00
2023-05-02T05:01:50.724Z,101297.06
2023-05-02T05:04:18.580Z,101303.22
2023-05-02T05:06:47.983Z,101306.91
2023-05-02T05:09:15.862Z,101307.50
2023-05-02T05:11:46.060Z,101312.81
2023-05-02T05:14:15.717Z,101314.88
2023-05-02T05:16:44.889Z,101322.47
2023-05-02T05:19:12.668Z,101317.94
2023-05-02T05:21:41.085Z,101320.84
2023-05-02T05:24:09.010Z,101329.88
2023-05-02T05:26:36.772Z,101336.19
2023-05-02T05:29:05.110Z,101336.41
2023-05-02T05:31:34.320Z,101336.19
2023-05-02T05:34:03.114Z,101335.59
2023-05-02T05:36:32.022Z,101350.13
2023-05-02T05:38:59.800Z,101355.22
2023-05-02T05:41:27.776Z,101357.28
2023-05-02T05:43:56.745Z,101355.22
2023-05-02T05:46:24.548Z,101353.19
2023-05-02T05:48:53.757Z,101357.06
2023-05-02T05:51:22.092Z,101365.88
2023-05-02T05:53:49.881Z,101353.41
2023-05-02T05:56:18.241Z,101360.16
2023-05-02T05:58:46.519Z,101370.81
2023-05-02T06:01:14.482Z,101376.13
2023-05-02T06:03:42.310Z,101378.56
2023-05-02T06:06:12.212Z,101390.84
2023-05-02T06:08:40.263Z,101398.22
2023-05-02T06:11:10.634Z,101403.34
2023-05-02T06:13:39.117Z,101400.25
2023-05-02T06:16:07.569Z,101410.06
2023-05-02T06:18:35.508Z,101418.06
2023-05-02T06:21:07.335Z,101410.69
2023-05-02T06:23:36.902Z,101417.25
2023-05-02T06:26:05.544Z,101421.94
2023-05-02T06:28:34.192Z,101419.88
2023-05-02T06:31:03.350Z,101433.00
2023-05-02T06:33:32.272Z,101425.41
2023-05-02T06:36:02.293Z,101420.28
2023-05-02T06:38:30.429Z,101427.41
2023-05-02T06:40:59.576Z,101429.06
2023-05-02T06:43:27.959Z,101430.94
2023-05-02T06:45:56.378Z,101437.88
2023-05-02T06:48:24.333Z,101446.03
2023-05-02T06:50:54.426Z,101459.75
2023-05-02T06:53:22.360Z,101451.34
2023-05-02T06:55:50.845Z,101458.09
2023-05-02T06:58:20.296Z,101455.25
2023-05-02T07:00:48.734Z,101456.69
2023-05-02T07:03:16.670Z,101461.19
2023-05-02T07:05:45.125Z,101459.97
2023-05-02T07:08:12.885Z,101468.78
2023-05-02T07:10:40.750Z,101475.34
2023-05-02T07:13:08.999Z,101474.31
2023-05-02T07:15:38.257Z,101472.91
2023-05-02T07:18:06.354Z,101481.69
2023-05-02T07:20:34.720Z,101479.25
2023-05-02T07:23:02.495Z,101481.53
2023-05-02T07:25:30.323Z,101481.97
2023-05-02T07:27:58.576Z,101481.97
2023-05-02T07:30:26.377Z,101479.09
2023-05-02T07:32:55.560Z,101480.13
2023-05-02T07:35:23.998Z,101477.09
2023-05-02T07:37:51.886Z,101489.19
2023-05-02T07:40:20.006Z,101491.66
2023-05-02T07:42:48.291Z,101492.06
2023-05-02T07:45:16.135Z,101495.53
2023-05-02T07:47:43.995Z,101496.16
2023-05-02T07:50:14.158Z,101492.69
2023-05-02T07:52:42.027Z,101492.47
2023-05-02T07:55:10.715Z,101503.53
2023-05-02T07:57:39.056Z,101496.97
2023-05-02T08:00:10.290Z,101501.50
2023-05-02T08:02:38.266Z,101491.00
2023-05-02T08:05:08.021Z,101491.00
2023-05-02T08:07:37.569Z,101482.97
2023-05-02T08:10:05.833Z,101475.53
2023-05-02T08:12:34.711Z,101479.19
2023-05-02T08:15:06.443Z,101480.38
2023-05-02T08:17:34.776Z,101492.88
2023-05-02T08:20:02.997Z,101501.88
2023-05-02T08:22:31.425Z,101503.66
2023-05-02T08:25:01.134Z,101514.09
2023-05-02T08:27:29.105Z,101524.75
2023-05-02T08:29:58.673Z,101523.47
2023-05-02T08:32:30.353Z,101527.97
2023-05-02T08:34:58.043Z,101531.03
2023-05-02T08:37:25.853Z,101530.38
2023-05-02T08:39:54.984Z,101530.97
2023-05-02T08:42:25.087Z,101534.28
2023-05-02T08:44:53.262Z,101528.94
2023-05-02T08:47:22.645Z,101532.47
2023-05-02T08:49:52.504Z,101535.31
2023-05-02T08:52:22.248Z,101524.06
2023-05-02T08:54:52.087Z,101542.63
2023-05-02T08:57:19.981Z,101547.16
2023-05-02T08:59:49.912Z,101547.91
2023-05-02T09:02:29.613Z,101548.53
2023-05-02T09:05:04.538Z,101554.47
2023-05-02T09:07:32.997Z,101549.72
2023-05-02T09:10:00.830Z,101547.44
2023-05-02T09:12:28.979Z,101546.59
2023-05-02T09:15:17.004Z,101543.19
2023-05-02T09:17:48.907Z,101540.44
2023-05-02T09:20:18.465Z,101552.50
2023-05-02T09:22:51.334Z,101557.31
2023-05-02T09:25:21.148Z,101558.94
2023-05-02T09:27:54.257Z,101563.38
2023-05-02T09:30:26.067Z,101561.88
2023-05-02T09:32:55.875Z,101558.56
2023-05-02T09:35:27.515Z,101569.91
2023-05-02T09:37:55.878Z,101573.19
2023-05-02T09:40:25.250Z,101574.97
2023-05-02T09:42:54.426Z,101580.03
2023-05-02T09:45:25.307Z,101577.09
2023-05-02T09:47:54.262Z,101580.34
2023-05-02T09:50:36.412Z,101583.19
2023-05-02T09:53:06.196Z,101578.41
2023-05-02T09:55:34.495Z,101570.84
2023-05-02T09:58:03.445Z,101567.13
2023-05-02T10:00:51.634Z,101579.47
2023-05-02T10:03:21.705Z,101566.84
2023-05-02T10:05:49.863Z,101567.81
2023-05-02T10:08:20.209Z,101574.81
2023-05-02T10:10:53.037Z,101578.47
2023-05-02T10:13:22.648Z,101572.69
2023-05-02T10:15:56.018Z,101571.72
2023-05-02T10:18:29.439Z,101572.16
2023-05-02T10:21:00.570Z,101579.38
2023-05-02T10:23:30.555Z,101580.25
2023-05-02T10:26:03.662Z,101570.25
2023-05-02T10:28:31.652Z,101571.00
2023-05-02T10:31:04.164Z,101570.66
2023-05-02T10:33:35.350Z,101579.94
2023-05-02T10:36:04.046Z,101566.09
2023-05-02T10:38:32.512Z,101580.41
2023-05-02T10:41:04.568Z,101586.19
2023-05-02T10:43:35.492Z,101583.66
2023-05-02T10:46:05.638Z,101587.69
2023-05-02T10:48:33.489Z,101580.66
2023-05-02T10:51:02.267Z,101583.09
2023-05-02T10:53:32.856Z,101585.38
2023-05-02T10:56:17.923Z,101581.59
2023-05-02T10:58:49.482Z,101591.19
2023-05-02T11:01:39.847Z,101585.75
2023-05-02T11:04:10.269Z,101575.75
2023-05-02T11:06:59.033Z,101581.72
2023-05-02T11:09:36.358Z,101574.84
2023-05-02T11:12:05.938Z,101571.50
2023-05-02T11:14:49.076Z,101572.78
2023-05-02T11:17:19.019Z,101569.75
2023-05-02T11:20:27.647Z,101567.47
2023-05-02T11:23:00.910Z,101574.44
2023-05-02T11:25:37.733Z,101573.31
2023-05-02T11:28:08.236Z,101570.63
2023-05-02T11:30:49.138Z,101570.81
2023-05-02T11:33:20.247Z,101577.78
2023-05-02T11:35:51.629Z,101582.69
2023-05-02T11:38:22.296Z,101574.44
2023-05-02T11:40:59.089Z,101569.31
2023-05-02T11:43:31.483Z,101573.88
2023-05-02T11:46:01.081Z,101581.00
2023-05-02T11:48:31.755Z,101579.59
2023-05-02T11:51:04.098Z,101581.91
2023-05-02T11:53:32.836Z,101580.88
2023-05-02T11:56:01.721Z,101585.03
2023-05-02T11:58:33.014Z,101588.50
2023-05-02T12:01:13.075Z,101587.78
2023-05-02T12:03:43.249Z,101588.28
2023-05-02T12:06:12.869Z,101587.69
2023-05-02T12:08:41.932Z,101587.69
2023-05-02T12:11:11.053Z,101597.63
2023-05-02T12:13:46.899Z,101603.25
2023-05-02T12:16:15.707Z,101598.31
2023-05-02T12:18:45.293Z,101603.72
2023-05-02T12:21:13.378Z,101602.88
2023-05-02T12:23:42.699Z,101604.41
2023-05-02T12:26:21.296Z,101605.47
2023-05-02T12:28:51.018Z,101606.97
2023-05-02T12:31:19.370Z,101618.19
2023-05-02T12:33:51.245Z,101612.91
2023-05-02T12:36:19.742Z,101610.22
2023-05-02T12:38:54.346Z,101621.41
2023-05-02T12:41:33.070Z,101623.03
2023-05-02T12:44:01.911Z,101623.81
2023-05-02T12:46:30.032Z,101622.25
2023-05-02T12:49:07.412Z,101623.88
2023-05-02T12:51:36.556Z,101629.84
2023-05-02T12:54:04.846Z,101627.97
2023-05-02T12:56:40.302Z,101632.63
2023-05-02T12:59:08.328Z,101631.34
2023-05-02T13:01:36.532Z,101637.06
2023-05-02T13:04:07.211Z,101639.06
2023-05-02T13:06:38.215Z,101642.63
2023-05-02T13:09:06.843Z,101646.25
2023-05-02T13:11:34.656Z,101641.69
2023-05-02T13:14:05.220Z,101643.91
2023-05-02T13:16:34.320Z,101639.63
2023-05-02T13:19:02.133Z,101642.09
2023-05-02T13:21:31.621Z,101630.56
2023-05-02T13:24:00.280Z,101638.38
2023-05-02T13:26:28.430Z,101642.00
2023-05-02T13:28:56.569Z,101625.03
2023-05-02T13:31:24.703Z,101634.72
2023-05-02T13:33:52.582Z,101631.34
2023-05-02T13:36:20.395Z,101640.75
2023-05-02T13:38:50.290Z,101634.34
2023-05-02T13:41:19.067Z,101628.09
2023-05-02T13:43:47.113Z,101623.47
2023-05-02T13:46:16.045Z,101632.09
2023-05-02T13:48:43.973Z,101628.75
2023-05-02T13:51:12.023Z,101623.47
2023-05-02T13:53:40.479Z,101632.72
2023-05-02T13:56:09.763Z,101620.00
2023-05-02T13:58:37.646Z,101613.16
2023-05-02T14:01:05.965Z,101618.00
2023-05-02T14:03:33.932Z,101626.28
2023-05-02T14:06:01.897Z,101621.63
2023-05-02T14:08:29.928Z,101608.09
2023-05-02T14:10:57.941Z,101618.50
2023-05-02T14:13:27.513Z,101618.16
2023-05-02T14:15:55.638Z,101612.72
2023-05-02T14:18:23.543Z,101619.22
2023-05-02T14:20:51.410Z,101612.84
2023-05-02T14:23:19.688Z,101617.03
2023-05-02T14:25:48.786Z,101606.28
2023-05-02T14:28:16.553Z,101609.56
2023-05-02T14:30:46.188Z,101625.75
2023-05-02T14:33:14.121Z,101619.94
2023-05-02T14:35:42.186Z,101617.47
2023-05-02T14:38:10.317Z,101611.41
2023-05-02T14:40:38.113Z,101617.16
2023-05-02T14:43:06.502Z,101620.19
2023-05-02T14:45:34.722Z,101627.19
2023-05-02T14:48:04.289Z,101627.19
2023-05-02T14:50:31.918Z,101624.25
2023-05-02T14:52:59.893Z,101617.41
2023-05-02T14:55:27.893Z,101614.72
2023-05-02T14:57:56.166Z,101612.97
2023-05-02T15:00:25.228Z,101618.91
2023-05-02T15:02:53.079Z,101609.59
2023-05-02T15:05:22.769Z,101604.78
2023-05-02T15:07:50.414Z,101607.22
2023-05-02T15:10:18.168Z,101613.97
2023-05-02T15:12:50.989Z,101602.00
2023-05-02T15:15:24.816Z,101610.59
2023-05-02T15:17:53.028Z,101617.19
2023-05-02T15:20:22.587Z,101609.13
2023-05-02T15:22:50.388Z,101612.03
2023-05-02T15:25:18.574Z,101608.22
2023-05-02T15:27:46.458Z,101606.47
2023-05-02T15:30:16.559Z,101606.03
2023-05-02T15:32:46.149Z,101605.66
2023-05-02T15:35:14.207Z,101606.97
2023-05-02T15:37:43.432Z,101612.47
2023-05-02T15:40:12.667Z,101607.69
2023-05-02T15:42:40.654Z,101615.13
2023-05-02T15:45:09.713Z,101614.09
2023-05-02T15:47:38.292Z,101617.81
2023-05-02T15:50:07.757Z,101611.81
2023-05-02T15:52:35.663Z,101609.94
2023-05-02T15:55:06.150Z,101618.13
2023-05-02T15:57:33.964Z,101622.91
2023-05-02T16:00:01.988Z,101625.63
2023-05-02T16:02:30.612Z,101618.63
2023-05-02T16:04:58.405Z,101620.25
2023-05-02T16:07:26.197Z,101629.97
2023-05-02T16:09:54.446Z,101619.16
2023-05-02T16:12:23.635Z,101623.06
2023-05-02T16:14:51.434Z,101610.84
2023-05-02T16:17:19.640Z,101615.63
2023-05-02T16:19:47.437Z,101618.09
2023-05-02T16:22:15.393Z,101619.81
2023-05-02T16:24:43.765Z,101614.00
2023-05-02T16:27:11.518Z,101613.41
2023-05-02T16:29:40.723Z,101614.88
2023-05-02T16:32:08.515Z,101617.50
2023-05-02T16:34:37.162Z,101619.06
2023-05-02T16:37:05.077Z,101613.88
2023-05-02T16:39:34.435Z,101618.56
2023-05-02T16:42:02.825Z,101607.47
2023-05-02T16:44:31.412Z,101612.81
2023-05-02T16:47:01.649Z,101605.22
2023-05-02T16:49:30.022Z,101602.50
2023-05-02T16:51:57.825Z,101601.16
2023-05-02T16:54:25.661Z,101604.88
2023-05-02T16:56:53.401Z,101595.75
2023-05-02T16:59:21.185Z,101600.44
2023-05-02T17:01:50.502Z,101605.41
2023-05-02T17:04:19.655Z,101598.72
2023-05-02T17:06:47.676Z,101601.38
2023-05-02T17:09:16.258Z,101607.75
2023-05-02T17:11:44.330Z,101615.78
2023-05-02T17:14:12.461Z,101618.78
2023-05-02T17:16:41.464Z,101611.56
2023-05-02T17:19:09.268Z,101617.66
2023-05-02T17:21:38.490Z,101616.69
2023-05-02T17:24:07.905Z,101618.19
2023-05-02T17:26:35.736Z,101622.13
2023-05-02T17:29:03.859Z,101617.06
2023-05-02T17:31:32.177Z,101625.75
2023-05-02T17:33:59.972Z,101622.22
2023-05-02T17:36:27.861Z,101618.69
2023-05-02T17:38:57.519Z,101622.72
2023-05-02T17:41:25.025Z,101618.63
2023-05-02T17:43:52.991Z,101623.03
2023-05-02T17:46:21.570Z,101628.31
2023-05-02T17:48:49.349Z,101630.75
2023-05-02T17:51:17.076Z,101628.97
2023-05-02T17:53:45.066Z,101629.09
2023-05-02T17:56:15.957Z,101629.78
2023-05-02T17:58:43.675Z,101634.09
2023-05-02T18:01:14.419Z,101636.19
2023-05-02T18:03:42.621Z,101645.75
2023-05-02T18:06:16.162Z,101647.63
2023-05-02T18:08:44.424Z,101649.94
2023-05-02T18:11:18.058Z,101649.16
2023-05-02T18:13:46.714Z,101646.06
2023-05-02T18:16:14.843Z,101656.41
2023-05-02T18:18:43.186Z,101657.25
2023-05-02T18:21:11.528Z,101665.91
2023-05-02T18:23:40.160Z,101660.56
2023-05-02T18:26:14.516Z,101668.16
2023-05-02T18:28:45.156Z,101664.84
2023-05-02T18:31:19.684Z,101658.28
2023-05-02T18:33:47.698Z,101655.22
2023-05-02T18:36:19.143Z,101652.00
2023-05-02T18:38:47.682Z,101668.81
2023-05-02T18:41:17.455Z,101669.31
2023-05-02T18:43:46.577Z,101674.22
2023-05-02T18:46:14.971Z,101669.09
2023-05-02T18:48:43.452Z,101676.28
2023-05-02T18:51:11.443Z,101672.63
2023-05-02T18:53:39.854Z,101675.09
2023-05-02T18:56:13.309Z,101674.28
2023-05-02T18:58:41.621Z,101671.25
2023-05-02T19:01:14.880Z,101682.19
2023-05-02T19:03:44.008Z,101683.00
2023-05-02T19:06:12.215Z,101685.66
2023-05-02T19:08:40.937Z,101686.28
2023-05-02T19:11:09.593Z,101698.66
2023-05-02T19:13:37.449Z,101701.31
2023-05-02T19:16:05.455Z,101698.03
2023-05-02T19:18:35.150Z,101698.44
2023-05-02T19:21:10.290Z,101707.72
2023-05-02T19:23:38.698Z,101699.50
2023-05-02T19:26:11.739Z,101687.19
2023-05-02T19:28:40.001Z,101698.91
2023-05-02T19:31:11.789Z,101705.47
2023-05-02T19:33:49.855Z,101714.53
2023-05-02T19:36:18.526Z,101714.75
2023-05-02T19:38:48.740Z,101710.41
2023-05-02T19:41:17.530Z,101719.06
2023-05-02T19:43:45.691Z,101715.13
2023-05-02T19:46:15.181Z,101720.47
2023-05-02T19:48:44.787Z,101720.69
2023-05-02T19:51:12.673Z,101728.69
2023-05-02T19:53:40.475Z,101728.69
2023-05-02T19:56:08.906Z,101737.72
2023-05-02T19:58:36.699Z,101732.59
2023-05-02T20:01:04.753Z,101739.34
2023-05-02T20:03:34.891Z,101736.28
2023-05-02T20:06:04.591Z,101738.97
2023-05-02T20:08:32.397Z,101742.84
2023-05-02T20:11:00.715Z,101742.25
2023-05-02T20:13:28.617Z,101739.78
2023-05-02T20:15:56.393Z,101743.88
2023-05-02T20:18:24.746Z,101748.19
2023-05-02T20:20:52.555Z,101748.00
2023-05-02T20:23:21.703Z,101750.25
2023-05-02T20:25:49.694Z,101755.59
2023-05-02T20:28:17.505Z,101761.94
2023-05-02T20:30:45.345Z,101761.50
2023-05-02T20:33:16.631Z,101759.66
2023-05-02T20:35:45.115Z,101757.78
2023-05-02T20:38:12.958Z,101759.03
2023-05-02T20:40:42.841Z,101764.13
2023-05-02T20:43:11.777Z,101767.41
2023-05-02T20:45:40.096Z,101773.78
2023-05-02T20:48:08.228Z,101781.13
2023-05-02T20:50:36.223Z,101773.13
2023-05-02T20:53:04.508Z,101778.69
2023-05-02T20:55:32.472Z,101786.69
2023-05-02T20:58:01.602Z,101785.03
2023-05-02T21:00:29.357Z,101774.59
2023-05-02T21:02:57.340Z,101784.63
2023-05-02T21:05:25.490Z,101786.88
2023-05-02T21:07:53.470Z,101783.56
2023-05-02T21:10:22.649Z,101782.72
2023-05-02T21:12:50.430Z,101781.06
2023-05-02T21:15:19.715Z,101787.38
2023-05-02T21:17:47.682Z,101785.50
2023-05-02T21:20:15.485Z,101788.97
2023-05-02T21:22:43.318Z,101788.34
2023-05-02T21:25:12.232Z,101791.81
2023-05-02T21:27:40.105Z,101797.13
2023-05-02T21:30:09.178Z,101794.47
2023-05-02T21:32:39.058Z,101783.00
2023-05-02T21:35:07.683Z,101790.97
2023-05-02T21:37:35.480Z,101786.69
2023-05-02T21:40:04.625Z,101776.81
2023-05-02T21:42:32.581Z,101780.53
2023-05-02T21:45:00.378Z,101785.88
2023-05-02T21:47:28.791Z,101778.91
2023-05-02T21:49:58.167Z,101777.06
2023-05-02T21:52:26.031Z,101772.31
2023-05-02T21:54:54.541Z,101771.66
2023-05-02T21:57:22.338Z,101766.56
2023-05-02T21:59:50.146Z,101763.47
2023-05-02T22:02:18.582Z,101761.00
2023-05-02T22:04:48.173Z,101762.84
2023-05-02T22:07:17.454Z,101768.53
2023-05-02T22:09:45.419Z,101769.31
2023-05-02T22:12:13.191Z,101766.63
2023-05-02T22:14:45.043Z,101768.00
2023-05-02T22:17:14.210Z,101772.06
2023-05-02T22:19:41.946Z,101774.47
2023-05-02T22:22:09.720Z,101783.84
2023-05-02T22:24:39.347Z,101780.53
2023-05-02T22:27:07.127Z,101787.09
2023-05-02T22:29:34.906Z,101785.44
2023-05-02T22:32:03.241Z,101778.41
2023-05-02T22:34:31.167Z,101791.00
2023-05-02T22:36:58.928Z,101800.59
2023-05-02T22:39:28.433Z,101794.41
2023-05-02T22:41:59.543Z,101792.94
2023-05-02T22:44:27.368Z,101794.16
2023-05-02T22:46:55.729Z,101790.84
2023-05-02T22:49:23.472Z,101792.69
2023-05-02T22:51:52.123Z,101793.50
2023-05-02T22:54:21.832Z,101789.03
2023-05-02T22:56:49.653Z,101795.22
2023-05-02T22:59:18.838Z,101789.28
2023-05-02T23:01:47.186Z,101790.25
2023-05-02T23:04:15.040Z,101793.31
2023-05-02T23:06:42.850Z,101792.69
2023-05-02T23:09:12.057Z,101787.75
2023-05-02T23:11:39.957Z,101781.72
2023-05-02T23:14:07.730Z,101790.78
2023-05-02T23:16:37.405Z,101793.66
2023-05-02T23:19:05.006Z,101786.28
2023-05-02T23:21:32.770Z,101780.72
2023-05-02T23:24:00.821Z,101782.94
2023-05-02T23:26:28.565Z,101785.97
2023-05-02T23:28:56.329Z,101788.59
2023-05-02T23:31:24.743Z,101785.47
2023-05-02T23:33:54.149Z,101783.16
2023-05-02T23:36:22.367Z,101784.53
2023-05-02T23:38:52.090Z,101781.25
2023-05-02T23:41:19.665Z,101782.53
2023-05-02T23:43:47.445Z,101788.22
2023-05-02T23:46:15.618Z,101782.63
2023-05-02T23:48:43.410Z,101781.34
2023-05-02T23:51:12.896Z,101787.06
2023-05-02T23:53:41.228Z,101794.38
2023-05-02T23:56:09.752Z,101794.13
2023-05-02T23:58:37.504Z,101789.19
